createdAt,value
2018-05-24T00:03:41.821Z,0
2018-05-24T00:08:41.905Z,0
2018-05-24T00:13:41.331Z,0
2018-05-24T00:18:41.865Z,0
2018-05-24T00:23:42.320Z,0
2018-05-24T00:28:41.895Z,0
2018-05-24T00:33:41.394Z,0
2018-05-24T00:38:41.816Z,0
2018-05-24T00:43:42.277Z,0
2018-05-24T00:48:41.714Z,0
2018-05-24T00:53:42.151Z,0
2018-05-24T00:58:41.474Z,0
2018-05-24T01:03:41.918Z,0
2018-05-24T01:08:42.105Z,0
2018-05-24T01:13:41.499Z,0
2018-05-24T01:18:41.909Z,0
2018-05-24T01:23:42.334Z,0
2018-05-24T01:28:41.889Z,0
2018-05-24T01:33:42.309Z,0
2018-05-24T01:38:41.847Z,0
2018-05-24T01:43:42.375Z,0
2018-05-24T01:48:41.828Z,0
2018-05-24T01:53:42.228Z,0
2018-05-24T01:58:41.730Z,0
2018-05-24T02:03:42.207Z,0
2018-05-24T02:08:42.235Z,0
2018-05-24T02:13:41.665Z,0
2018-05-24T02:18:42.062Z,0
2018-05-24T02:23:42.392Z,0
2018-05-24T02:28:41.805Z,0
2018-05-24T02:33:42.268Z,0
2018-05-24T02:38:41.651Z,0
2018-05-24T02:43:42.049Z,0
2018-05-24T02:48:42.415Z,0
2018-05-24T02:53:41.994Z,0
2018-05-24T02:58:42.347Z,0
2018-05-24T03:03:41.963Z,0
2018-05-24T03:08:42.297Z,0
2018-05-24T03:13:41.694Z,5
2018-05-24T03:18:42.189Z,5
2018-05-24T03:23:41.608Z,7
2018-05-24T03:28:42.073Z,7
2018-05-24T03:33:42.541Z,9
2018-05-24T03:38:42.016Z,9
2018-05-24T03:43:42.397Z,12
2018-05-24T03:48:41.923Z,12
2018-05-24T03:53:42.298Z,14
2018-05-24T03:58:41.848Z,14
2018-05-24T04:03:42.386Z,17.5
2018-05-24T04:08:42.282Z,17.5
2018-05-24T04:13:41.764Z,19
2018-05-24T04:18:42.463Z,19
2018-05-24T04:23:41.939Z,21
2018-05-24T04:28:42.569Z,21
2018-05-24T04:33:42.294Z,25
2018-05-24T04:38:41.650Z,25
2018-05-24T04:43:42.423Z,26
2018-05-24T04:48:41.891Z,26
2018-05-24T04:53:42.207Z,28
2018-05-24T04:58:41.694Z,28
2018-05-24T05:03:42.217Z,30
2018-05-24T05:08:42.389Z,30
2018-05-24T05:13:41.864Z,32.3
2018-05-24T05:18:42.322Z,32.3
2018-05-24T05:23:41.748Z,39.5
2018-05-24T05:28:42.121Z,39.5
2018-05-24T05:33:42.564Z,47.7
2018-05-24T05:38:42.011Z,47.7
2018-05-24T05:43:42.449Z,111
2018-05-24T05:48:41.878Z,111
2018-05-24T05:53:42.359Z,313.7
2018-05-24T05:58:41.863Z,313.7
2018-05-24T06:03:42.549Z,346.2
2018-05-24T06:08:41.731Z,346.2
2018-05-24T06:13:42.294Z,373.3
2018-05-24T06:18:41.917Z,373.3
2018-05-24T06:23:42.459Z,399.4
2018-05-24T06:28:41.954Z,399.4
2018-05-24T06:33:42.524Z,423.5
2018-05-24T06:38:41.882Z,423.5
2018-05-24T06:43:42.386Z,449
2018-05-24T06:48:41.801Z,449
2018-05-24T06:53:42.243Z,474.2
2018-05-24T06:58:41.702Z,474.2
2018-05-24T07:03:42.208Z,499
2018-05-24T07:08:42.550Z,499
2018-05-24T07:13:42.018Z,522.4
2018-05-24T07:18:42.625Z,522.4
2018-05-24T07:23:42.116Z,544.8
2018-05-24T07:28:42.521Z,544.8
2018-05-24T07:33:41.957Z,569
2018-05-24T07:38:42.395Z,569
2018-05-24T07:43:41.831Z,588
2018-05-24T07:48:42.284Z,588
2018-05-24T07:53:42.659Z,612.7
2018-05-24T07:58:42.100Z,612.7
2018-05-24T08:03:42.909Z,635.7
2018-05-24T08:08:41.976Z,635.7
2018-05-24T08:13:42.509Z,656.8
2018-05-24T08:18:41.907Z,656.8
2018-05-24T08:23:42.411Z,664.8
2018-05-24T08:28:41.836Z,664.8
2018-05-24T08:33:42.323Z,693.2
2018-05-24T08:38:42.812Z,693.2
2018-05-24T08:43:42.199Z,718.2
2018-05-24T08:48:42.572Z,718.2
2018-05-24T08:53:41.994Z,730
2018-05-24T08:58:42.478Z,730
2018-05-24T09:03:42.973Z,740.7
2018-05-24T09:08:42.064Z,740.7
2018-05-24T09:13:42.442Z,752.5
2018-05-24T09:18:42.875Z,752.5
2018-05-24T09:23:42.334Z,765
2018-05-24T09:28:42.811Z,765
2018-05-24T09:33:42.428Z,778.2
2018-05-24T09:38:42.879Z,778.2
2018-05-24T09:43:42.220Z,785.6
2018-05-24T09:48:42.660Z,785.6
2018-05-24T09:53:42.067Z,794.3
2018-05-24T09:58:42.514Z,794.3
2018-05-24T10:03:42.003Z,803
2018-05-24T10:08:41.931Z,803
2018-05-24T10:13:42.365Z,813
2018-05-24T10:18:42.894Z,813
2018-05-24T10:23:42.273Z,823.8
2018-05-24T10:28:42.696Z,823.8
2018-05-24T10:33:42.235Z,825
2018-05-24T10:38:42.703Z,825
2018-05-24T10:43:42.265Z,829
2018-05-24T10:48:42.760Z,829
2018-05-24T10:53:42.290Z,828
2018-05-24T10:58:42.774Z,828
2018-05-24T11:03:42.209Z,830.2
2018-05-24T11:08:43.014Z,830.2
2018-05-24T11:13:42.441Z,830
2018-05-24T11:18:42.977Z,830
2018-05-24T11:23:42.408Z,828.5
2018-05-24T11:28:42.854Z,828.5
2018-05-24T11:33:42.373Z,829
2018-05-24T11:38:42.799Z,829
2018-05-24T11:43:42.223Z,825.2
2018-05-24T11:48:42.999Z,825.2
2018-05-24T11:53:42.430Z,830.5
2018-05-24T11:58:42.869Z,830.5
2018-05-24T12:03:42.414Z,825.2
2018-05-24T12:08:42.813Z,825.2
2018-05-24T12:13:42.974Z,832.8
2018-05-24T12:18:42.433Z,832.8
2018-05-24T12:23:42.989Z,817
2018-05-24T12:28:42.486Z,817
2018-05-24T12:33:43.023Z,737.7
2018-05-24T12:38:42.477Z,737.7
2018-05-24T12:43:42.800Z,765
2018-05-24T12:48:42.252Z,765
2018-05-24T12:53:42.641Z,744
2018-05-24T12:58:43.065Z,744
2018-05-24T13:03:42.510Z,335.5
2018-05-24T13:08:42.584Z,335.5
2018-05-24T13:13:42.256Z,764.5
2018-05-24T13:18:42.666Z,764.5
2018-05-24T13:23:42.152Z,234
2018-05-24T13:28:42.613Z,234
2018-05-24T13:33:43.084Z,206
2018-05-24T13:38:42.486Z,206
2018-05-24T13:43:42.998Z,341.8
2018-05-24T13:48:42.470Z,341.8
2018-05-24T13:53:42.882Z,281.2
2018-05-24T13:58:42.337Z,281.2
2018-05-24T14:03:43.245Z,318
2018-05-24T14:08:42.680Z,318
2018-05-24T14:13:43.206Z,598
2018-05-24T14:18:42.765Z,598
2018-05-24T14:23:42.207Z,193
2018-05-24T14:28:42.665Z,193
2018-05-24T14:33:43.133Z,627.2
2018-05-24T14:38:42.495Z,627.2
2018-05-24T14:43:42.940Z,206
2018-05-24T14:48:42.653Z,206
2018-05-24T14:53:43.017Z,556.2
2018-05-24T14:58:42.708Z,556.2
2018-05-24T15:03:43.269Z,516
2018-05-24T15:08:42.570Z,516
2018-05-24T15:13:42.830Z,565.5
2018-05-24T15:18:42.310Z,565.5
2018-05-24T15:23:42.710Z,543
2018-05-24T15:28:43.174Z,543
2018-05-24T15:33:42.657Z,284.5
2018-05-24T15:38:43.096Z,284.5
2018-05-24T15:43:42.717Z,81
2018-05-24T15:48:43.248Z,81
2018-05-24T15:53:42.709Z,79.8
2018-05-24T15:58:42.380Z,79.8
2018-05-24T16:03:42.839Z,70.2
2018-05-24T16:08:42.387Z,70.2
2018-05-24T16:13:42.878Z,160.7
2018-05-24T16:18:42.341Z,160.7
2018-05-24T16:23:42.775Z,54.5
2018-05-24T16:28:43.233Z,54.5
2018-05-24T16:33:42.737Z,53
2018-05-24T16:38:43.169Z,53
2018-05-24T16:43:42.747Z,96.5
2018-05-24T16:48:43.282Z,96.5
2018-05-24T16:53:42.787Z,119.3
2018-05-24T16:58:43.271Z,119.3
2018-05-24T17:03:42.810Z,44
2018-05-24T17:08:43.325Z,44
2018-05-24T17:13:42.563Z,39
2018-05-24T17:18:43.355Z,39
2018-05-24T17:23:42.764Z,34.3
2018-05-24T17:28:43.203Z,34.3
2018-05-24T17:33:42.754Z,33
2018-05-24T17:38:43.209Z,33
2018-05-24T17:43:42.668Z,32
2018-05-24T17:48:43.050Z,32
2018-05-24T17:53:43.456Z,28.8
2018-05-24T17:58:42.900Z,28.8
2018-05-24T18:03:43.436Z,25
2018-05-24T18:08:42.890Z,25
2018-05-24T18:13:42.532Z,21
2018-05-24T18:18:43.010Z,21
2018-05-24T18:23:42.539Z,18.7
2018-05-24T18:28:42.983Z,18.7
2018-05-24T18:33:43.452Z,16
2018-05-24T18:38:42.895Z,16
2018-05-24T18:43:43.379Z,14
2018-05-24T18:48:42.875Z,14
2018-05-24T18:53:43.318Z,12
2018-05-24T18:58:42.832Z,12
2018-05-24T19:03:43.309Z,11
2018-05-24T19:08:42.814Z,11
2018-05-24T19:13:43.185Z,8
2018-05-24T19:18:42.630Z,8
2018-05-24T19:23:43.043Z,5
2018-05-24T19:28:43.445Z,5
2018-05-24T19:33:43.058Z,0
2018-05-24T19:38:42.711Z,0
2018-05-24T19:43:43.239Z,0
2018-05-24T19:48:42.762Z,0
2018-05-24T19:53:43.224Z,0
2018-05-24T19:58:42.708Z,0
2018-05-24T20:03:43.183Z,0
2018-05-24T20:08:42.656Z,0
2018-05-24T20:13:42.750Z,0
2018-05-24T20:18:43.249Z,0
2018-05-24T20:23:42.743Z,0
2018-05-24T20:28:43.231Z,0
2018-05-24T20:33:42.692Z,0
2018-05-24T20:38:43.219Z,0
2018-05-24T20:43:42.710Z,0
2018-05-24T20:48:43.229Z,0
2018-05-24T20:53:42.836Z,0
2018-05-24T20:58:43.268Z,0
2018-05-24T21:03:42.920Z,0
2018-05-24T21:08:43.320Z,0
2018-05-24T21:13:43.247Z,0
2018-05-24T21:18:42.772Z,0
2018-05-24T21:23:43.267Z,0
2018-05-24T21:28:42.982Z,0
2018-05-24T21:33:43.563Z,0
2018-05-24T21:38:43.010Z,0
2018-05-24T21:43:43.452Z,0
2018-05-24T21:48:43.019Z,0
2018-05-24T21:53:43.456Z,0
2018-05-24T21:58:42.876Z,0
2018-05-24T22:03:43.231Z,0
2018-05-24T22:08:43.705Z,0
2018-05-24T22:13:43.158Z,0
2018-05-24T22:18:43.367Z,0
2018-05-24T22:23:42.822Z,0
2018-05-24T22:28:43.144Z,0
2018-05-24T22:33:43.490Z,0
2018-05-24T22:38:42.969Z,0
2018-05-24T22:43:43.467Z,0
2018-05-24T22:48:42.938Z,0
2018-05-24T22:53:43.392Z,0
2018-05-24T22:58:42.892Z,0
2018-05-24T23:03:43.644Z,0
2018-05-24T23:08:43.154Z,0
2018-05-24T23:13:43.693Z,0
2018-05-24T23:18:43.704Z,0
2018-05-24T23:23:43.167Z,0
2018-05-24T23:28:43.671Z,0
2018-05-24T23:33:43.133Z,0
2018-05-24T23:38:43.676Z,0
2018-05-24T23:43:43.068Z,0
2018-05-24T23:48:43.540Z,0
2018-05-24T23:53:42.963Z,0
2018-05-24T23:58:43.351Z,0
